Time;durP1;ratioP1;P1;durP2;ratioP2;P2;SDS_P1;SDS_P2;PMS_P1;PMS_P2;Temp;Humidity;BMP_temperature;BMP_pressure;BME280_temperature;BME280_humidity;BME280_pressure;Samples;Min_cycle;Max_cycle;Signal;HPM_P1;HPM_P2
2023/10/19 00:00:33;;;;;;;17.63;13.10;;;;;;;10.73;100.00;148822.28;5022951;28;20248;-57
2023/10/19 00:03:02;;;;;;;17.67;13.00;;;;;;;10.77;100.00;148832.25;5025066;28;20242;-57
2023/10/19 00:05:30;;;;;;;17.73;12.87;;;;;;;10.79;100.00;148837.22;5033668;28;20237;-57
2023/10/19 00:07:59;;;;;;;20.80;13.80;;;;;;;10.79;100.00;148837.22;5020647;28;20234;-56
2023/10/19 00:10:28;;;;;;;20.10;13.47;;;;;;;10.85;100.00;148850.91;5027836;28;20239;-57
2023/10/19 00:13:00;;;;;;;18.97;13.73;;;;;;;10.83;100.00;148847.19;5025924;28;20342;-57
2023/10/19 00:15:30;;;;;;;19.00;14.90;;;;;;;10.84;100.00;148848.41;5022970;28;20228;-58
2023/10/19 00:17:56;;;;;;;19.50;13.43;;;;;;;10.85;100.00;148852.19;5025118;28;20316;-57
2023/10/19 00:20:36;;;;;;;29.97;17.37;;;;;;;10.81;100.00;148842.22;5032905;28;20703;-55
2023/10/19 00:23:05;;;;;;;28.80;17.07;;;;;;;10.75;100.00;148828.50;5033046;28;20702;-57
2023/10/19 00:25:34;;;;;;;24.13;16.10;;;;;;;10.74;100.00;148826.00;5032765;28;20237;-57
2023/10/19 00:28:01;;;;;;;25.83;17.13;;;;;;;10.67;100.00;148808.56;5026132;28;20358;-57
2023/10/19 00:30:32;;;;;;;22.50;16.53;;;;;;;10.58;100.00;148787.41;5023255;28;20235;-57
2023/10/19 00:33:03;;;;;;;27.77;17.70;;;;;;;10.58;100.00;148786.19;5023449;28;20236;-57
2023/10/19 00:35:35;;;;;;;25.40;16.87;;;;;;;10.59;100.00;148788.69;5024933;28;20230;-57
2023/10/19 00:41:05;;;;;;;25.77;16.10;;;;;;;10.59;100.00;148789.91;4980567;28;20287;-57
2023/10/19 00:43:36;;;;;;;20.43;14.40;;;;;;;10.62;100.00;148796.09;5011705;28;20238;-57
2023/10/19 00:46:04;;;;;;;20.90;13.63;;;;;;;10.61;100.00;148793.59;5008965;28;20264;-57
2023/10/19 00:48:34;;;;;;;20.60;14.43;;;;;;;10.63;100.00;148799.84;5009757;28;20227;-57
2023/10/19 00:51:09;;;;;;;19.10;13.63;;;;;;;10.69;100.00;148813.53;5024932;28;20238;-57
2023/10/19 00:53:39;;;;;;;20.67;14.43;;;;;;;10.71;100.00;148818.53;5010182;28;20235;-57
2023/10/19 00:56:09;;;;;;;21.87;15.93;;;;;;;10.71;100.00;148818.53;5020834;28;20292;-57
2023/10/19 00:58:38;;;;;;;24.17;16.40;;;;;;;10.69;100.00;148812.31;5022688;28;20319;-56
2023/10/19 01:01:06;;;;;;;20.67;15.23;;;;;;;10.76;100.00;148829.75;5014682;28;20234;-56
2023/10/19 01:03:37;;;;;;;21.27;15.03;;;;;;;10.90;100.00;148863.38;5038261;28;20239;-53
2023/10/19 01:06:09;;;;;;;20.90;14.90;;;;;;;10.93;100.00;148872.13;5019945;28;20248;-56
2023/10/19 01:08:45;;;;;;;20.00;14.83;;;;;;;10.95;100.00;148874.59;5014861;28;20714;-56
2023/10/19 01:11:15;;;;;;;19.47;13.77;;;;;;;10.98;100.00;148883.31;5030664;28;20222;-57
2023/10/19 01:13:44;;;;;;;23.80;15.63;;;;;;;10.88;100.00;148858.38;5024137;28;20257;-57
2023/10/19 01:16:20;;;;;;;29.27;15.63;;;;;;;10.74;100.00;148826.00;5017827;28;20232;-57
2023/10/19 01:18:48;;;;;;;18.27;13.90;;;;;;;10.65;100.00;148803.56;5026266;28;20540;-57
2023/10/19 01:21:18;;;;;;;16.40;12.93;;;;;;;10.65;100.00;148802.34;5024062;28;20244;-57
2023/10/19 01:23:48;;;;;;;17.93;13.80;;;;;;;10.59;100.00;148789.91;5022162;28;20245;-56
2023/10/19 01:26:18;;;;;;;16.70;12.20;;;;;;;10.65;100.00;148802.34;5024685;28;20801;-56
2023/10/19 01:28:48;;;;;;;14.93;11.80;;;;;;;10.67;100.00;148808.56;5026908;28;20230;-53
2023/10/19 01:31:16;;;;;;;16.53;10.77;;;;;;;10.72;100.00;148821.00;5006062;28;20234;-56
2023/10/19 01:33:44;;;;;;;18.43;13.10;;;;;;;10.71;100.00;148818.53;5009653;28;20635;-55
2023/10/19 01:36:10;;;;;;;16.20;10.67;;;;;;;10.94;100.00;148873.34;5012616;28;20262;-54
2023/10/19 01:38:37;;;;;;;15.83;10.97;;;;;;;11.38;100.00;148979.22;5037259;28;20231;-55
2023/10/19 01:41:07;;;;;;;14.43;8.17;;;;;;;12.87;100.00;149337.03;5023620;28;20222;-56
2023/10/19 01:43:40;;;;;;;15.13;7.20;;;;;;;13.48;100.00;149484.31;5024224;28;20291;-55
2023/10/19 01:46:11;;;;;;;13.97;6.90;;;;;;;14.01;100.00;149612.84;5027768;28;20228;-56
2023/10/19 01:48:40;;;;;;;8.20;5.27;;;;;;;14.50;100.00;149731.44;5025010;28;20555;-54
2023/10/19 01:51:11;;;;;;;7.60;4.63;;;;;;;14.43;100.00;149715.16;5018922;28;20310;-54
2023/10/19 01:53:39;;;;;;;6.20;4.20;;;;;;;14.75;100.00;149791.41;5020995;28;20832;-56
2023/10/19 01:56:09;;;;;;;5.80;3.30;;;;;;;14.87;100.00;149820.13;5030384;28;20232;-55
2023/10/19 01:58:36;;;;;;;5.63;3.30;;;;;;;15.03;100.00;149860.09;5019250;28;20294;-55
2023/10/19 02:01:08;;;;;;;10.33;3.33;;;;;;;14.94;100.00;149836.34;5035943;28;20261;-55
2023/10/19 02:03:36;;;;;;;4.93;2.87;;;;;;;15.21;100.00;149902.56;5021452;28;20263;-56
2023/10/19 02:06:10;;;;;;;5.40;2.90;;;;;;;15.38;100.00;149942.50;5032328;28;20249;-55
2023/10/19 02:08:38;;;;;;;5.60;2.63;;;;;;;15.34;100.00;149935.03;5004060;28;20236;-56
2023/10/19 02:11:13;;;;;;;13.13;3.07;;;;;;;15.42;100.00;149952.50;5015487;28;20248;-55
2023/10/19 02:13:43;;;;;;;9.67;3.00;;;;;;;15.44;100.00;149957.47;5004611;28;20233;-56
2023/10/19 02:16:09;;;;;;;3.70;2.80;;;;;;;15.34;100.00;149933.78;5016046;28;20636;-55
2023/10/19 02:18:35;;;;;;;7.53;3.00;;;;;;;15.37;100.00;149940.03;5003780;28;20697;-53
2023/10/19 02:21:06;;;;;;;5.13;2.93;;;;;;;15.29;100.00;149922.53;5003982;28;20238;-55
2023/10/19 02:23:35;;;;;;;8.20;3.17;;;;;;;15.28;100.00;149918.78;5009284;28;20241;-56
2023/10/19 02:26:02;;;;;;;7.93;3.17;;;;;;;15.27;100.00;149917.56;5024645;28;20376;-56
2023/10/19 02:28:31;;;;;;;8.90;3.87;;;;;;;15.15;100.00;149887.56;5022008;28;20240;-56
2023/10/19 02:31:11;;;;;;;6.23;3.57;;;;;;;14.94;100.00;149837.59;5008853;28;20623;-56
2023/10/19 02:33:38;;;;;;;8.50;3.57;;;;;;;14.77;100.00;149796.41;5012147;28;20234;-54
2023/10/19 02:36:12;;;;;;;6.97;3.40;;;;;;;14.60;100.00;149756.41;5028728;28;20231;-56
2023/10/19 02:38:44;;;;;;;7.17;3.63;;;;;;;14.53;100.00;149738.91;5014064;28;20261;-56
2023/10/19 02:41:10;;;;;;;5.97;3.53;;;;;;;14.36;100.00;149697.69;5031322;28;20653;-56
2023/10/19 02:43:38;;;;;;;10.47;5.83;;;;;;;14.16;100.00;149649.03;5025464;28;20231;-54
2023/10/19 02:46:06;;;;;;;16.17;11.07;;;;;;;13.42;100.00;149470.56;5006782;28;20582;-54
2023/10/19 02:48:32;;;;;;;114.43;16.67;;;;;;;12.93;100.00;149353.28;5007465;28;20222;-56
2023/10/19 02:51:05;;;;;;;138.43;17.13;;;;;;;12.43;100.00;149232.31;5029606;28;20238;-55
2023/10/19 02:53:34;;;;;;;50.40;13.67;;;;;;;12.22;100.00;149181.16;5014694;28;20239;-56
2023/10/19 02:56:09;;;;;;;42.03;14.93;;;;;;;11.99;100.00;149126.31;5010756;28;20227;-56
2023/10/19 02:58:36;;;;;;;19.27;14.60;;;;;;;11.81;100.00;149082.66;5023921;28;20222;-56
2023/10/19 03:01:01;;;;;;;80.13;16.10;;;;;;;11.51;100.00;149011.63;5029787;28;20240;-54
2023/10/19 03:03:30;;;;;;;23.10;15.93;;;;;;;11.52;100.00;149012.91;5017354;28;20235;-56
2023/10/19 03:05:59;;;;;;;19.43;14.57;;;;;;;11.49;100.00;149006.63;5024069;28;20242;-55
2023/10/19 03:08:26;;;;;;;24.13;16.03;;;;;;;11.51;100.00;149011.63;5016213;28;20231;-56
2023/10/19 03:11:03;;;;;;;123.93;19.37;;;;;;;11.40;100.00;148982.97;5025487;28;20243;-55
2023/10/19 03:13:31;;;;;;;315.30;24.07;;;;;;;11.32;100.00;148965.53;5007401;28;20293;-55
2023/10/19 03:15:57;;;;;;;410.00;25.23;;;;;;;11.29;100.00;148958.06;5025661;28;20584;-53
2023/10/19 03:18:25;;;;;;;188.20;20.60;;;;;;;11.29;100.00;148956.78;5047910;28;20698;-55
2023/10/19 03:20:52;;;;;;;42.00;16.60;;;;;;;11.36;100.00;148974.25;5026174;28;20329;-56
2023/10/19 03:23:20;;;;;;;258.83;22.60;;;;;;;11.28;100.00;148955.56;5021980;28;20228;-56
2023/10/19 03:25:55;;;;;;;131.93;19.13;;;;;;;11.26;100.00;148949.31;5011362;28;20637;-54
2023/10/19 03:28:25;;;;;;;31.27;17.27;;;;;;;11.29;100.00;148958.06;5012895;28;20236;-54
2023/10/19 03:30:55;;;;;;;64.17;18.93;;;;;;;11.26;100.00;148950.59;5195066;23;21210;-56
2023/10/19 03:33:26;;;;;;;28.13;18.23;;;;;;;11.28;100.00;148955.56;4988562;28;20239;-54
2023/10/19 03:35:55;;;;;;;45.97;19.43;;;;;;;11.23;100.00;148944.34;4991800;28;20251;-55
2023/10/19 03:38:22;;;;;;;44.03;20.17;;;;;;;11.22;100.00;148940.63;4987209;28;20223;-53
2023/10/19 03:40:58;;;;;;;104.80;20.80;;;;;;;11.12;100.00;148915.69;4981628;28;20220;-55
2023/10/19 03:43:27;;;;;;;24.90;17.40;;;;;;;11.11;100.00;148914.47;4977318;28;20225;-53
2023/10/19 03:45:54;;;;;;;39.13;19.83;;;;;;;11.03;100.00;148895.75;4970879;28;20243;-52
2023/10/19 03:48:26;;;;;;;26.30;18.80;;;;;;;10.99;100.00;148885.78;5001391;28;20229;-55
2023/10/19 03:50:55;;;;;;;26.53;18.10;;;;;;;10.91;100.00;148867.13;4997974;28;20231;-55
2023/10/19 03:53:22;;;;;;;123.57;21.33;;;;;;;10.83;100.00;148847.19;4993166;28;20232;-53
2023/10/19 03:55:50;;;;;;;30.20;18.23;;;;;;;10.75;100.00;148827.25;4983400;28;20227;-55
2023/10/19 03:58:19;;;;;;;26.67;17.23;;;;;;;10.71;100.00;148818.53;4986175;28;20256;-54
2023/10/19 04:00:48;;;;;;;41.47;17.47;;;;;;;10.70;100.00;148814.81;4971933;28;20224;-55
2023/10/19 04:03:15;;;;;;;61.03;18.73;;;;;;;10.61;100.00;148793.59;4986213;28;20222;-55
2023/10/19 04:05:44;;;;;;;50.50;18.37;;;;;;;10.51;100.00;148768.75;4983625;28;20243;-56
2023/10/19 04:08:15;;;;;;;29.47;18.30;;;;;;;10.46;100.00;148758.78;4986223;28;20267;-56
2023/10/19 04:10:46;;;;;;;22.57;15.93;;;;;;;10.43;100.00;148750.03;4982880;28;20678;-53
2023/10/19 04:13:13;;;;;;;23.90;15.83;;;;;;;10.30;100.00;148718.88;4986235;28;20226;-56
2023/10/19 04:15:41;;;;;;;22.53;15.37;;;;;;;10.28;100.00;148715.13;4983270;28;20230;-56
2023/10/19 04:18:11;;;;;;;23.40;16.03;;;;;;;10.22;100.00;148698.94;4986286;28;20227;-57
2023/10/19 04:20:54;;;;;;;49.20;29.43;;;;;;;10.21;100.00;148697.69;4983479;28;20224;-56
2023/10/19 04:23:26;;;;;;;22.03;14.90;;;;;;;10.18;100.00;148691.47;4985670;28;20600;-57
2023/10/19 04:25:56;;;;;;;24.83;15.93;;;;;;;10.16;100.00;148686.50;4982973;28;20610;-57
2023/10/19 04:28:30;;;;;;;23.13;15.07;;;;;;;10.14;100.00;148681.53;4985796;28;20239;-54
2023/10/19 04:31:00;;;;;;;19.23;12.43;;;;;;;10.07;100.00;148662.88;4982655;28;20718;-55
2023/10/19 04:33:28;;;;;;;21.70;13.87;;;;;;;10.12;100.00;148675.28;4985230;28;20222;-56
2023/10/19 04:35:55;;;;;;;19.37;11.70;;;;;;;10.14;100.00;148681.53;4983121;28;20231;-55
2023/10/19 04:38:24;;;;;;;18.77;11.53;;;;;;;10.13;100.00;148677.75;4985917;28;20234;-56
2023/10/19 04:40:50;;;;;;;14.07;8.63;;;;;;;10.11;100.00;148674.03;4949187;28;20322;-55
2023/10/19 04:43:17;;;;;;;13.50;9.67;;;;;;;10.20;100.00;148695.19;4979627;28;20221;-56
2023/10/19 04:45:44;;;;;;;16.47;8.43;;;;;;;10.18;100.00;148691.47;4982882;28;20231;-56
2023/10/19 04:48:11;;;;;;;12.03;8.53;;;;;;;10.19;100.00;148692.69;4985435;28;20937;-55
2023/10/19 04:50:39;;;;;;;16.00;7.93;;;;;;;10.14;100.00;148681.53;4982263;28;20232;-56
2023/10/19 04:53:06;;;;;;;14.17;8.00;;;;;;;10.11;100.00;148672.78;4985503;28;20215;-55
2023/10/19 04:55:34;;;;;;;11.83;6.83;;;;;;;10.08;100.00;148665.31;4982628;28;20251;-56
2023/10/19 04:58:01;;;;;;;14.47;7.47;;;;;;;10.10;100.00;148670.28;4984947;28;20580;-56
2023/10/19 05:00:27;;;;;;;8.80;7.00;;;;;;;10.08;100.00;148666.59;4985706;28;20274;-56
2023/10/19 05:02:55;;;;;;;13.13;8.50;;;;;;;10.11;100.00;148674.03;4982472;28;20256;-56
2023/10/19 05:05:21;;;;;;;16.30;9.13;;;;;;;10.11;100.00;148672.78;4985433;28;20952;-56
2023/10/19 05:07:51;;;;;;;9.47;7.60;;;;;;;10.12;100.00;148676.53;4982518;28;20242;-54
2023/10/19 05:10:19;;;;;;;18.53;11.70;;;;;;;10.12;100.00;148675.28;4985493;28;20221;-57
2023/10/19 05:12:54;;;;;;;16.83;9.57;;;;;;;10.11;100.00;148672.78;4982449;28;20293;-57
2023/10/19 05:15:26;;;;;;;18.57;8.03;;;;;;;10.13;100.00;148679.03;4999848;28;20708;-54
2023/10/19 05:17:54;;;;;;;23.07;12.20;;;;;;;10.12;100.00;148676.53;4991045;28;20261;-54
2023/10/19 05:20:21;;;;;;;18.33;12.20;;;;;;;10.21;100.00;148697.69;4991510;28;20242;-57
2023/10/19 05:22:51;;;;;;;13.80;8.73;;;;;;;10.17;100.00;148687.72;4998338;28;20230;-56
2023/10/19 05:25:18;;;;;;;15.60;8.37;;;;;;;10.20;100.00;148695.19;4985324;28;20235;-55
2023/10/19 05:27:45;;;;;;;14.60;7.07;;;;;;;10.30;100.00;148718.88;4982477;28;20239;-56
2023/10/19 05:30:14;;;;;;;12.97;6.47;;;;;;;10.37;100.00;148736.31;4990001;28;20261;-56
2023/10/19 05:32:40;;;;;;;18.73;9.93;;;;;;;10.41;100.00;148745.06;5001690;28;20226;-56
2023/10/19 05:35:08;;;;;;;13.20;8.50;;;;;;;10.43;100.00;148750.03;4996263;28;20239;-56
2023/10/19 05:37:34;;;;;;;10.13;6.47;;;;;;;10.57;100.00;148783.69;5001835;28;20233;-54
2023/10/19 05:40:01;;;;;;;29.53;16.10;;;;;;;10.52;100.00;148771.22;5004503;28;20250;-54
2023/10/19 05:42:29;;;;;;;18.90;10.77;;;;;;;10.66;100.00;148806.06;5004381;28;20230;-54
2023/10/19 05:44:55;;;;;;;13.17;8.00;;;;;;;10.71;100.00;148817.31;4998223;28;20235;-56
2023/10/19 05:47:23;;;;;;;13.93;10.17;;;;;;;10.85;100.00;148850.91;4984358;28;20227;-56
2023/10/19 05:49:51;;;;;;;14.47;7.50;;;;;;;11.00;100.00;148888.28;4982017;28;20220;-56
2023/10/19 05:52:17;;;;;;;16.53;10.33;;;;;;;11.17;100.00;148928.16;4984845;28;20256;-56
2023/10/19 05:54:44;;;;;;;19.27;10.13;;;;;;;11.21;100.00;148938.13;4981877;28;20579;-57
2023/10/19 05:57:10;;;;;;;12.50;6.40;;;;;;;11.29;100.00;148956.78;4985056;28;20227;-57
2023/10/19 05:59:37;;;;;;;10.47;5.50;;;;;;;11.39;100.00;148981.72;4981504;28;20231;-57
2023/10/19 06:02:07;;;;;;;9.37;6.20;;;;;;;11.40;100.00;148982.97;4984306;28;20229;-54
2023/10/19 06:04:35;;;;;;;12.47;7.20;;;;;;;11.46;100.00;148997.94;4982223;28;20718;-56
2023/10/19 06:07:02;;;;;;;9.50;6.90;;;;;;;11.44;100.00;148992.97;4973798;28;20227;-55
2023/10/19 06:09:30;;;;;;;11.23;6.27;;;;;;;11.48;100.00;149002.94;4985421;28;20236;-57
2023/10/19 06:11:56;;;;;;;14.27;7.33;;;;;;;11.58;100.00;149027.84;4982551;28;20251;-57
2023/10/19 06:14:23;;;;;;;10.40;7.10;;;;;;;11.59;100.00;149030.34;4974123;28;21059;-56
2023/10/19 06:16:50;;;;;;;9.33;6.07;;;;;;;11.70;100.00;149056.50;4981818;28;20220;-56
2023/10/19 06:19:17;;;;;;;13.83;7.67;;;;;;;11.84;100.00;149090.13;4985494;28;20223;-56
2023/10/19 06:21:45;;;;;;;6.90;5.47;;;;;;;11.98;100.00;149122.53;4981714;28;20235;-56
2023/10/19 06:24:14;;;;;;;7.20;4.90;;;;;;;12.13;100.00;149160.00;4984400;28;20231;-55
2023/10/19 06:26:42;;;;;;;8.60;3.73;;;;;;;12.50;100.00;149249.78;4981663;28;20215;-54
2023/10/19 06:29:08;;;;;;;7.43;4.47;;;;;;;12.52;100.00;149254.75;4984014;28;20219;-54
2023/10/19 06:31:35;;;;;;;8.67;4.87;;;;;;;12.57;100.00;149264.75;4981435;28;20235;-57
2023/10/19 06:34:01;;;;;;;6.13;3.00;;;;;;;12.88;100.00;149340.81;4984790;28;20595;-54
2023/10/19 06:36:30;;;;;;;4.90;2.13;;;;;;;13.13;100.00;149401.91;4987072;28;20228;-57
2023/10/19 06:38:58;;;;;;;10.90;7.33;;;;;;;12.95;100.00;149357.00;4985111;28;20233;-53
2023/10/19 06:41:24;;;;;;;13.50;6.70;;;;;;;12.80;100.00;149320.84;4987423;28;20222;-56
2023/10/19 06:43:51;;;;;;;9.60;6.37;;;;;;;12.82;100.00;149325.84;4985000;28;20234;-56
2023/10/19 06:46:17;;;;;;;9.53;4.40;;;;;;;12.94;100.00;149355.78;4987828;28;20225;-54
2023/10/19 06:48:44;;;;;;;9.70;6.77;;;;;;;12.88;100.00;149339.53;4992353;28;20240;-54
2023/10/19 06:51:11;;;;;;;10.73;6.87;;;;;;;12.88;100.00;149340.81;5002024;28;20295;-56
2023/10/19 06:53:38;;;;;;;9.40;6.27;;;;;;;12.90;100.00;149344.53;4992693;28;20316;-56
2023/10/19 06:56:06;;;;;;;11.37;6.47;;;;;;;12.85;100.00;149334.53;4995952;28;20225;-56
2023/10/19 06:58:33;;;;;;;9.43;6.03;;;;;;;12.90;100.00;149344.53;4985057;28;20217;-56
2023/10/19 07:01:05;;;;;;;8.73;5.50;;;;;;;12.97;100.00;149363.25;5003485;28;20230;-56
2023/10/19 07:03:32;;;;;;;74.50;46.20;;;;;;;12.98;100.00;149364.50;5002289;28;20843;-55
2023/10/19 07:05:59;;;;;;;41.63;24.83;;;;;;;13.13;100.00;149401.91;4994004;28;20310;-54
2023/10/19 07:08:27;;;;;;;26.83;18.43;;;;;;;13.12;100.00;149399.41;4987129;28;20279;-55
2023/10/19 07:10:54;;;;;;;18.00;11.03;;;;;;;13.24;100.00;149426.88;4984633;28;20238;-56
2023/10/19 07:13:22;;;;;;;10.93;8.13;;;;;;;13.34;100.00;149450.53;4987319;28;20217;-55
2023/10/19 07:15:51;;;;;;;12.23;10.30;;;;;;;13.48;100.00;149484.31;4984068;28;20233;-57
2023/10/19 07:18:18;;;;;;;8.60;4.50;;;;;;;13.61;100.00;149515.50;4993008;28;20236;-56
2023/10/19 07:20:48;;;;;;;9.73;5.70;;;;;;;13.72;100.00;149544.22;4995586;28;20736;-57
2023/10/19 07:23:19;;;;;;;9.40;5.67;;;;;;;13.70;100.00;149537.94;5006652;28;20241;-57
2023/10/19 07:25:47;;;;;;;13.70;8.67;;;;;;;13.60;100.00;149514.25;5003493;28;20217;-56
2023/10/19 07:28:15;;;;;;;15.57;10.03;;;;;;;13.51;100.00;149491.78;5000390;28;20285;-57
2023/10/19 07:30:46;;;;;;;15.53;9.80;;;;;;;13.49;100.00;149486.81;5000116;28;20209;-57
2023/10/19 07:33:17;;;;;;;12.90;8.67;;;;;;;13.41;100.00;149469.34;4993761;28;20232;-56
2023/10/19 07:35:46;;;;;;;18.47;8.37;;;;;;;13.46;100.00;149480.53;4982427;28;20618;-57
2023/10/19 07:38:14;;;;;;;11.57;8.20;;;;;;;13.60;100.00;149514.25;4986754;28;20319;-55
2023/10/19 07:40:40;;;;;;;12.30;8.57;;;;;;;13.67;100.00;149531.72;4983722;28;20219;-56
2023/10/19 07:43:08;;;;;;;11.27;7.73;;;;;;;13.71;100.00;149540.44;4986543;28;20793;-57
2023/10/19 07:45:36;;;;;;;14.53;7.90;;;;;;;13.82;100.00;149566.63;4983609;28;20276;-56
2023/10/19 07:48:07;;;;;;;14.80;8.83;;;;;;;13.78;100.00;149556.69;4984550;28;20255;-58
2023/10/19 07:50:34;;;;;;;15.70;8.80;;;;;;;13.93;100.00;149594.09;4982033;28;20218;-57
2023/10/19 07:53:01;;;;;;;13.83;9.23;;;;;;;13.94;100.00;149596.59;4986319;28;20320;-57
2023/10/19 07:55:28;;;;;;;11.10;8.37;;;;;;;13.98;100.00;149605.34;4986543;28;20225;-58
2023/10/19 07:57:57;;;;;;;12.83;8.67;;;;;;;13.99;100.00;149607.84;4983456;28;20249;-55
2023/10/19 08:00:24;;;;;;;12.53;8.67;;;;;;;14.00;100.00;149611.56;4985343;28;20231;-57
2023/10/19 08:02:53;;;;;;;15.47;9.83;;;;;;;14.05;100.00;149622.81;4983470;28;20254;-58
2023/10/19 08:05:22;;;;;;;16.27;10.43;;;;;;;13.96;100.00;149600.38;4984754;28;20222;-58
2023/10/19 08:07:51;;;;;;;13.13;10.77;;;;;;;14.07;100.00;149626.56;4982672;28;20269;-57
2023/10/19 08:10:19;;;;;;;11.23;9.47;;;;;;;14.19;100.00;149656.50;4983860;28;20841;-57
2023/10/19 08:12:50;;;;;;;17.23;11.50;;;;;;;14.15;100.00;149646.53;4982760;28;20227;-57
2023/10/19 08:15:17;;;;;;;16.43;11.47;;;;;;;14.21;100.00;149661.50;4984441;28;20746;-57
2023/10/19 08:17:59;;;;;;;11.90;9.93;;;;;;;14.34;100.00;149692.69;4969094;28;20231;-60
2023/10/19 08:20:30;;;;;;;15.83;10.23;;;;;;;14.45;100.00;149718.94;4981107;28;20224;-58
2023/10/19 08:22:58;;;;;;;13.33;10.30;;;;;;;14.48;100.00;149726.44;4988633;28;20235;-55
2023/10/19 08:25:27;;;;;;;15.83;10.20;;;;;;;14.56;100.00;149746.41;4984958;28;20221;-55
2023/10/19 08:27:56;;;;;;;14.93;11.07;;;;;;;14.49;100.00;149727.66;4982191;28;20334;-53
2023/10/19 08:30:24;;;;;;;14.13;11.17;;;;;;;14.46;100.00;149721.44;4984954;28;20260;-55
2023/10/19 08:32:53;;;;;;;20.33;11.63;;;;;;;14.43;100.00;149713.94;4982027;28;20294;-53
2023/10/19 08:35:24;;;;;;;17.10;11.50;;;;;;;14.58;100.00;149750.13;4985667;28;20314;-54
2023/10/19 08:37:53;;;;;;;18.30;11.50;;;;;;;14.52;100.00;149735.16;4982733;28;20236;-57
2023/10/19 08:40:21;;;;;;;14.63;9.80;;;;;;;14.55;100.00;149743.91;4985351;28;20796;-55
2023/10/19 08:42:51;;;;;;;16.13;10.30;;;;;;;14.59;100.00;149752.63;4983027;28;20308;-56
2023/10/19 08:45:18;;;;;;;16.93;10.63;;;;;;;14.59;100.00;149753.91;4985800;28;20888;-54
2023/10/19 08:47:50;;;;;;;16.37;10.10;;;;;;;14.65;100.00;149767.63;4982117;28;20287;-56
2023/10/19 08:50:20;;;;;;;14.70;9.67;;;;;;;14.73;100.00;149787.66;4985246;28;20220;-55
2023/10/19 08:52:54;;;;;;;11.07;8.57;;;;;;;14.82;100.00;149807.63;4982816;28;21016;-57
2023/10/19 08:55:21;;;;;;;15.03;9.93;;;;;;;14.82;100.00;149807.63;4985369;28;20216;-56
2023/10/19 08:57:52;;;;;;;14.57;9.60;;;;;;;14.95;100.00;149838.81;4982292;28;20234;-55
2023/10/19 09:00:24;;;;;;;16.50;11.10;;;;;;;15.04;100.00;149861.31;4984892;28;20225;-55
2023/10/19 09:02:52;;;;;;;16.33;10.50;;;;;;;15.04;100.00;149862.59;4981604;28;20235;-56
2023/10/19 09:05:22;;;;;;;17.30;10.60;;;;;;;15.19;100.00;149898.78;4985412;28;20232;-54
2023/10/19 09:07:55;;;;;;;15.70;9.97;;;;;;;15.34;100.00;149935.03;4982486;28;20723;-55
2023/10/19 09:10:23;;;;;;;14.63;10.37;;;;;;;15.19;100.00;149897.56;4984825;28;20287;-57
2023/10/19 09:13:01;;;;;;;15.93;9.30;;;;;;;15.35;100.00;149937.53;4982632;28;20319;-55
2023/10/19 09:15:29;;;;;;;13.87;9.73;;;;;;;15.45;100.00;149959.97;4985307;28;20220;-56
2023/10/19 09:17:56;;;;;;;11.83;8.60;;;;;;;15.52;100.00;149976.25;4982220;28;20620;-56
2023/10/19 09:20:28;;;;;;;15.33;9.03;;;;;;;15.59;100.00;149994.97;4982889;28;20226;-53
2023/10/19 09:22:57;;;;;;;15.33;10.33;;;;;;;15.72;100.00;150026.22;4982152;28;20314;-57
2023/10/19 09:25:24;;;;;;;16.50;10.40;;;;;;;15.78;100.00;150041.22;4985214;28;20218;-56
2023/10/19 09:27:51;;;;;;;11.07;9.40;;;;;;;15.86;100.00;150059.94;4982252;28;20666;-56
2023/10/19 09:30:20;;;;;;;15.57;9.73;;;;;;;15.89;100.00;150066.28;4984624;28;20310;-56
2023/10/19 09:32:53;;;;;;;13.23;10.10;;;;;;;15.83;100.00;150052.44;4981559;28;20221;-56
2023/10/19 09:35:21;;;;;;;30.27;23.17;;;;;;;16.07;100.00;150111.22;4984868;28;20811;-56
2023/10/19 09:37:53;;;;;;;17.40;10.47;;;;;;;16.08;100.00;150112.50;4981880;28;20655;-54
2023/10/19 09:40:23;;;;;;;12.43;9.07;;;;;;;16.06;100.00;150108.72;4983786;28;20227;-57
2023/10/19 09:42:57;;;;;;;15.67;9.80;;;;;;;16.26;100.00;150155.00;4981811;28;20241;-55
2023/10/19 09:45:28;;;;;;;13.43;9.67;;;;;;;16.19;100.00;150138.72;4984746;28;20939;-56
2023/10/19 09:47:56;;;;;;;15.23;8.90;;;;;;;15.96;100.00;150083.72;4981276;28;20916;-56
2023/10/19 09:50:23;;;;;;;15.37;10.73;;;;;;;15.62;100.00;150001.25;4984945;28;20223;-56
2023/10/19 09:52:51;;;;;;;16.33;10.33;;;;;;;15.63;100.00;150003.75;4981732;28;20699;-56
2023/10/19 09:55:25;;;;;;;17.03;10.47;;;;;;;15.38;100.00;149943.75;4984376;28;20243;-54
2023/10/19 09:57:56;;;;;;;16.67;11.37;;;;;;;15.12;100.00;149881.31;4981993;28;22495;-55
2023/10/19 10:00:24;;;;;;;17.03;14.73;;;;;;;15.04;100.00;149861.31;4984359;28;20562;-57
2023/10/19 10:02:52;;;;;;;15.77;12.30;;;;;;;14.94;100.00;149836.34;4981045;28;20243;-56
2023/10/19 10:05:47;;;;;;;22.43;12.90;;;;;;;14.72;100.00;149783.94;4984877;28;20213;-55
2023/10/19 10:08:30;;;;;;;16.67;12.27;;;;;;;14.67;100.00;149772.63;4983227;28;20230;-56
2023/10/19 10:10:59;;;;;;;22.57;12.03;;;;;;;14.56;100.00;149745.13;4985052;28;20598;-56
2023/10/19 10:13:38;;;;;;;24.67;13.43;;;;;;;14.44;100.00;149717.66;4986428;28;20322;-57
2023/10/19 10:16:07;;;;;;;20.57;14.23;;;;;;;14.37;100.00;149698.97;4984874;28;20224;-57
2023/10/19 10:18:36;;;;;;;21.33;15.43;;;;;;;14.27;100.00;149675.25;4985082;28;20219;-54
2023/10/19 10:21:12;;;;;;;23.93;15.17;;;;;;;14.14;100.00;149644.03;4988512;28;20227;-57
2023/10/19 10:23:43;;;;;;;23.47;17.40;;;;;;;14.13;100.00;149641.53;4985147;28;20237;-56
2023/10/19 10:26:13;;;;;;;20.57;15.10;;;;;;;14.23;100.00;149666.50;4987934;28;20222;-55
2023/10/19 10:28:40;;;;;;;20.67;15.50;;;;;;;14.28;100.00;149679.00;4984833;28;20226;-57
2023/10/19 10:31:15;;;;;;;21.10;14.00;;;;;;;14.35;100.00;149695.19;4988132;28;20261;-56
2023/10/19 10:33:46;;;;;;;23.70;15.90;;;;;;;14.29;100.00;149681.47;4984512;28;20220;-55
2023/10/19 10:36:13;;;;;;;4.70;3.93;;;;;;;14.54;100.00;149740.16;4985988;28;20225;-56
2023/10/19 10:38:40;;;;;;;2.70;1.10;;;;;;;14.82;100.00;149807.63;4985512;28;20223;-57
2023/10/19 10:41:09;;;;;;;1.87;0.60;;;;;;;15.04;100.00;149861.31;4988179;28;20238;-57
2023/10/19 10:43:52;;;;;;;0.60;0.50;;;;;;;15.19;100.00;149898.78;4985188;28;20651;-57
2023/10/19 10:46:19;;;;;;;0.93;0.50;;;;;;;15.31;100.00;149926.28;4988138;28;20223;-56
2023/10/19 10:48:48;;;;;;;0.90;0.30;;;;;;;15.45;100.00;149961.25;4984698;28;20238;-56
2023/10/19 10:51:22;;;;;;;0.60;0.40;;;;;;;15.45;100.00;149959.97;4987726;28;20236;-57
2023/10/19 10:53:54;;;;;;;0.80;0.30;;;;;;;15.57;100.00;149989.97;4984727;28;20214;-56
2023/10/19 10:56:23;;;;;;;0.70;0.37;;;;;;;15.59;100.00;149993.75;4987387;28;20564;-56
2023/10/19 10:58:51;;;;;;;1.70;0.40;;;;;;;15.57;100.00;149988.75;4984815;28;20213;-56
2023/10/19 11:01:29;;;;;;;1.60;0.40;;;;;;;15.54;100.00;149981.25;4986229;28;20231;-54
2023/10/19 11:04:06;;;;;;;1.53;0.30;;;;;;;15.52;100.00;149977.47;4972631;28;20243;-57
2023/10/19 11:06:33;;;;;;;2.57;0.70;;;;;;;15.46;100.00;149962.47;4986281;28;20261;-57
2023/10/19 11:09:10;;;;;;;0.53;0.30;;;;;;;15.47;100.00;149966.25;4986086;28;20235;-56
2023/10/19 11:11:38;;;;;;;2.20;0.63;;;;;;;15.54;100.00;149981.25;4984927;28;20224;-56
2023/10/19 11:14:12;;;;;;;1.03;0.50;;;;;;;15.86;100.00;150058.72;4986427;28;20592;-56
2023/10/19 11:16:39;;;;;;;0.97;0.53;;;;;;;15.96;100.00;150082.50;4984584;28;20705;-55
2023/10/19 11:19:06;;;;;;;0.80;0.60;;;;;;;16.08;100.00;150112.50;4987180;28;20286;-57